Time;durP1;ratioP1;P1;durP2;ratioP2;P2;SDS_P1;SDS_P2;PMS_P1;PMS_P2;Temp;Humidity;BMP_temperature;BMP_pressure;BME280_temperature;BME280_humidity;BME280_pressure;Samples;Min_cycle;Max_cycle;Signal;HPM_P1;HPM_P2
2021/12/04 00:01:36;;;;;;;17.80;8.70;;;;;;;-0.80;64.14;99448.67;126890;1309;109784;-78
2021/12/04 00:04:45;;;;;;;17.60;8.70;;;;;;;-0.82;64.16;99448.13;126962;1309;108767;-78
2021/12/04 00:07:51;;;;;;;18.80;9.10;;;;;;;-0.86;64.11;99442.08;126942;1309;108776;-79
2021/12/04 00:10:56;;;;;;;21.30;10.00;;;;;;;-0.91;63.97;99436.32;126959;1310;108821;-78
2021/12/04 00:14:02;;;;;;;18.60;9.40;;;;;;;-0.94;64.00;99431.77;126940;1310;109200;-81
2021/12/04 00:17:08;;;;;;;19.10;9.10;;;;;;;-0.97;64.22;99433.37;126848;1307;109008;-78
2021/12/04 00:20:14;;;;;;;20.90;10.40;;;;;;;-0.99;64.03;99430.52;126698;1308;108754;-78
2021/12/04 00:23:20;;;;;;;26.30;12.90;;;;;;;-1.01;64.38;99430.30;127085;1307;108943;-78
2021/12/04 00:26:25;;;;;;;22.00;10.90;;;;;;;-1.02;64.15;99425.83;126948;1309;108877;-81
2021/12/04 00:29:30;;;;;;;22.10;10.60;;;;;;;-1.04;64.17;99424.42;127030;1309;108841;-80
2021/12/04 00:32:40;;;;;;;22.40;10.40;;;;;;;-1.07;64.08;99433.00;127012;1309;108826;-80
2021/12/04 00:35:48;;;;;;;23.30;10.90;;;;;;;-1.08;64.28;99432.17;126980;1313;108799;-79
2021/12/04 00:49:10;;;;;;;23.90;11.50;;;;;;;-1.09;64.39;99418.12;126742;1309;108807;-77
2021/12/04 00:52:15;;;;;;;22.20;11.00;;;;;;;-1.08;64.34;99415.45;126761;1309;108711;-78
2021/12/04 00:55:21;;;;;;;26.50;11.70;;;;;;;-1.09;64.36;99411.45;126822;1309;108712;-77
2021/12/04 00:58:26;;;;;;;20.20;10.80;;;;;;;-1.11;64.35;99407.77;126919;1309;108949;-76
2021/12/04 01:01:32;;;;;;;21.00;10.30;;;;;;;-1.15;64.62;99398.06;127008;1310;108990;-76
2021/12/04 01:04:37;;;;;;;25.40;13.00;;;;;;;-1.17;64.56;99397.67;126999;1309;108255;-77
2021/12/04 01:07:43;;;;;;;26.80;15.40;;;;;;;-1.19;64.39;99388.56;127033;1309;108773;-78
2021/12/04 01:10:48;;;;;;;30.00;14.10;;;;;;;-1.23;64.61;99383.58;127035;1307;108810;-77
2021/12/04 01:13:53;;;;;;;23.80;10.70;;;;;;;-1.23;64.62;99378.52;126807;1309;108809;-78
2021/12/04 01:16:59;;;;;;;23.60;10.90;;;;;;;-1.20;64.66;99372.91;126966;1312;108937;-78
2021/12/04 01:20:06;;;;;;;25.10;11.80;;;;;;;-1.10;64.71;99368.06;126976;1307;108930;-78
2021/12/04 01:23:11;;;;;;;24.30;10.80;;;;;;;-0.99;64.55;99362.11;127039;1309;108710;-77
2021/12/04 01:26:17;;;;;;;23.00;11.30;;;;;;;-0.89;64.77;99359.21;126618;1309;106674;-77
2021/12/04 01:29:23;;;;;;;21.80;11.30;;;;;;;-0.81;64.71;99363.02;126788;1312;108797;-77
2021/12/04 01:32:28;;;;;;;24.00;11.20;;;;;;;-0.78;64.59;99355.46;127062;1307;108987;-79
2021/12/04 01:35:34;;;;;;;23.60;11.40;;;;;;;-0.76;64.45;99351.17;126677;1309;314756;-76
2021/12/04 01:38:39;;;;;;;25.80;11.50;;;;;;;-0.77;64.52;99341.11;127027;1308;108963;-77
2021/12/04 01:41:45;;;;;;;25.00;11.50;;;;;;;-0.81;64.58;99339.59;126992;1307;109035;-77
2021/12/04 01:44:50;;;;;;;27.80;12.60;;;;;;;-0.83;64.56;99342.04;127003;1309;108928;-77
2021/12/04 01:48:01;;;;;;;25.20;12.20;;;;;;;-0.87;64.57;99337.23;126880;1309;109035;-78
2021/12/04 01:51:06;;;;;;;29.00;13.30;;;;;;;-0.92;64.48;99336.16;126591;1309;108677;-78
2021/12/04 01:54:12;;;;;;;28.20;13.40;;;;;;;-0.96;64.52;99337.66;126800;1312;107492;-78
2021/12/04 01:57:19;;;;;;;34.30;16.10;;;;;;;-1.01;64.48;99333.60;126998;1309;108988;-76
2021/12/04 02:00:24;;;;;;;26.70;14.00;;;;;;;-1.06;64.72;99321.77;127001;1311;108823;-77
2021/12/04 02:03:31;;;;;;;25.80;13.20;;;;;;;-1.10;64.64;99321.63;127032;1309;109006;-78
2021/12/04 02:06:38;;;;;;;25.70;13.10;;;;;;;-1.12;64.75;99318.52;126665;1309;108980;-79
2021/12/04 02:09:43;;;;;;;27.40;13.10;;;;;;;-1.16;64.72;99316.82;126673;1309;108473;-77
2021/12/04 02:12:49;;;;;;;25.00;12.50;;;;;;;-1.18;64.81;99316.23;126671;1309;107659;-78
2021/12/04 02:15:56;;;;;;;24.40;12.30;;;;;;;-1.19;64.97;99315.77;126519;1312;108705;-75
2021/12/04 02:19:01;;;;;;;26.70;12.20;;;;;;;-1.18;65.04;99307.34;126571;1309;107853;-77
2021/12/04 02:22:07;;;;;;;25.20;12.80;;;;;;;-1.16;65.03;99310.17;126682;1309;107074;-77
2021/12/04 02:25:13;;;;;;;24.80;12.50;;;;;;;-1.14;65.01;99308.80;126593;1309;108921;-77
2021/12/04 02:28:18;;;;;;;23.80;12.40;;;;;;;-1.14;64.68;99310.56;126779;1309;109859;-76
2021/12/04 02:31:24;;;;;;;27.60;13.80;;;;;;;-1.13;64.97;99308.77;126996;1309;108531;-77
2021/12/04 02:34:32;;;;;;;26.10;13.60;;;;;;;-1.13;64.93;99309.14;126598;1309;108714;-77
2021/12/04 02:37:39;;;;;;;26.20;13.00;;;;;;;-1.15;64.88;99311.73;126690;1309;108939;-78
2021/12/04 02:40:46;;;;;;;27.40;13.60;;;;;;;-1.15;65.17;99311.16;126793;1309;108781;-78
2021/12/04 02:43:51;;;;;;;30.80;14.10;;;;;;;-1.12;64.99;99304.88;126647;1309;108893;-78
2021/12/04 02:46:57;;;;;;;30.30;14.30;;;;;;;-1.06;65.09;99299.21;126568;1309;108827;-77
2021/12/04 02:50:05;;;;;;;26.20;12.70;;;;;;;-0.96;65.20;99286.30;126580;1309;108771;-77
2021/12/04 02:53:10;;;;;;;27.50;13.00;;;;;;;-0.81;65.49;99281.67;127046;1309;108819;-77
2021/12/04 02:56:16;;;;;;;28.40;13.20;;;;;;;-0.67;65.40;99281.06;126680;1309;108904;-77
2021/12/04 02:59:21;;;;;;;26.80;12.90;;;;;;;-0.57;65.48;99273.02;126676;1307;107462;-78
2021/12/04 03:02:27;;;;;;;27.20;12.60;;;;;;;-0.51;65.05;99268.77;126865;1312;108943;-77
2021/12/04 03:05:32;;;;;;;28.70;13.70;;;;;;;-0.47;65.25;99260.09;126960;1307;106541;-75
2021/12/04 03:08:38;;;;;;;26.30;12.90;;;;;;;-0.47;65.09;99259.59;127003;1308;108924;-75
2021/12/04 03:11:44;;;;;;;28.10;13.00;;;;;;;-0.48;65.08;99253.88;126965;1309;108833;-75
2021/12/04 03:14:50;;;;;;;25.50;12.90;;;;;;;-0.49;65.14;99252.39;126778;1307;109507;-76
2021/12/04 03:17:55;;;;;;;26.30;12.80;;;;;;;-0.51;65.29;99244.66;126613;1309;107908;-76
2021/12/04 03:21:03;;;;;;;25.20;12.20;;;;;;;-0.52;65.14;99243.17;126640;1309;108981;-77
2021/12/04 03:24:12;;;;;;;24.00;11.90;;;;;;;-0.56;65.17;99236.06;126629;1307;108920;-77
2021/12/04 03:27:19;;;;;;;22.90;12.00;;;;;;;-0.58;65.29;99233.58;126582;1310;108643;-78
2021/12/04 03:30:36;;;;;;;25.50;12.20;;;;;;;-0.62;65.35;99227.05;126651;1309;109754;-77
2021/12/04 03:40:48;;;;;;;26.00;12.50;;;;;;;-0.67;65.43;99211.02;126888;1309;108775;-77
2021/12/04 03:43:54;;;;;;;21.30;11.20;;;;;;;-0.69;65.56;99210.08;127046;1309;108710;-76
2021/12/04 03:46:59;;;;;;;24.00;12.20;;;;;;;-0.71;65.54;99209.20;127059;1309;108928;-80
2021/12/04 03:50:06;;;;;;;20.00;11.00;;;;;;;-0.71;65.63;99209.55;126957;1308;108916;-76
2021/12/04 03:53:11;;;;;;;22.60;10.80;;;;;;;-0.72;65.52;99205.79;126703;1309;109030;-77
2021/12/04 03:56:21;;;;;;;22.80;10.80;;;;;;;-0.71;65.63;99204.67;127058;1310;109304;-76
2021/12/04 03:59:27;;;;;;;21.20;10.40;;;;;;;-0.70;65.57;99202.83;127040;1309;108754;-75
2021/12/04 04:02:32;;;;;;;22.10;11.70;;;;;;;-0.68;65.83;99200.06;126945;1310;109514;-79
2021/12/04 04:05:38;;;;;;;21.40;10.60;;;;;;;-0.65;65.58;99197.91;126929;1309;109057;-76
2021/12/04 04:08:43;;;;;;;23.10;11.50;;;;;;;-0.57;65.69;99191.06;126786;1309;108949;-77
2021/12/04 04:11:48;;;;;;;17.80;9.90;;;;;;;-0.45;65.42;99192.13;126906;1309;109161;-76
2021/12/04 04:14:54;;;;;;;19.50;10.20;;;;;;;-0.32;65.48;99184.74;127032;1312;110111;-76
2021/12/04 04:17:59;;;;;;;18.40;9.40;;;;;;;-0.21;65.46;99179.97;126809;1309;107925;-79
2021/12/04 04:21:05;;;;;;;17.30;9.30;;;;;;;-0.10;65.31;99176.23;126680;1310;108972;-78
2021/12/04 04:24:13;;;;;;;18.60;9.00;;;;;;;-0.04;65.51;99169.80;126986;1309;108952;-76
2021/12/04 04:27:19;;;;;;;21.70;11.20;;;;;;;-0.01;65.25;99167.84;127000;1309;109693;-77
2021/12/04 04:30:24;;;;;;;22.90;11.20;;;;;;;0.01;65.32;99162.31;126804;1309;108944;-78
2021/12/04 04:33:35;;;;;;;20.30;11.90;;;;;;;0.02;65.15;99167.16;126899;1312;108783;-77
2021/12/04 04:36:50;;;;;;;18.20;9.90;;;;;;;0.02;65.25;99168.05;126727;1309;108733;-78
2021/12/04 05:13:55;;;;;;;13.20;7.90;;;;;;;-0.02;65.35;99133.14;126581;1307;108927;-77
2021/12/04 05:17:05;;;;;;;15.20;8.40;;;;;;;-0.03;65.23;99129.54;126720;1307;108934;-75
2021/12/04 05:20:19;;;;;;;15.40;8.30;;;;;;;-0.03;65.29;99125.51;126741;1306;108890;-76
2021/12/04 05:23:25;;;;;;;15.70;8.20;;;;;;;-0.03;65.47;99122.55;127006;1308;108925;-76
2021/12/04 05:26:31;;;;;;;13.40;7.70;;;;;;;-0.00;65.58;99121.83;127449;1308;108795;-76
2021/12/04 05:29:37;;;;;;;16.40;8.60;;;;;;;0.02;65.38;99119.88;127051;1307;108990;-74
2021/12/04 05:32:42;;;;;;;15.70;8.20;;;;;;;0.05;65.33;99116.90;126617;1306;109144;-77
2021/12/04 05:35:48;;;;;;;14.20;8.50;;;;;;;0.07;65.48;99118.81;126876;1309;108672;-75
2021/12/04 05:38:54;;;;;;;14.50;8.20;;;;;;;0.10;65.51;99119.98;126632;1309;107830;-76
2021/12/04 05:42:01;;;;;;;14.20;8.40;;;;;;;0.12;65.46;99116.19;126968;1309;108996;-77
2021/12/04 05:45:14;;;;;;;14.20;8.30;;;;;;;0.14;65.43;99115.14;126614;1309;108767;-77
2021/12/04 05:48:27;;;;;;;16.50;8.20;;;;;;;0.15;65.36;99115.60;126697;1309;108698;-75
2021/12/04 05:51:47;;;;;;;14.50;8.10;;;;;;;0.15;65.21;99112.11;126902;1308;106900;-77
2021/12/04 05:55:11;;;;;;;19.40;9.10;;;;;;;0.18;65.31;99111.74;127548;1306;108686;-77
2021/12/04 05:58:17;;;;;;;15.50;8.30;;;;;;;0.21;65.18;99109.23;127252;1307;108815;-72
2021/12/04 06:01:24;;;;;;;15.40;8.60;;;;;;;0.23;65.23;99111.52;127185;1307;108910;-73
2021/12/04 06:04:30;;;;;;;15.40;8.10;;;;;;;0.25;65.25;99110.86;127216;1309;108859;-75
2021/12/04 06:07:35;;;;;;;22.90;12.10;;;;;;;0.25;65.25;99109.59;126927;1306;108888;-74
2021/12/04 06:10:41;;;;;;;15.20;8.60;;;;;;;0.27;65.36;99112.11;127312;1309;108770;-76
2021/12/04 06:13:47;;;;;;;15.60;8.60;;;;;;;0.28;65.22;99106.41;127392;1309;107905;-75
2021/12/04 06:16:53;;;;;;;15.90;8.50;;;;;;;0.28;65.05;99107.63;126866;1306;108808;-76
2021/12/04 06:23:22;;;;;;;14.50;7.70;;;;;;;0.32;65.06;99105.91;126600;1309;108912;-74
2021/12/04 06:26:28;;;;;;;13.80;7.40;;;;;;;0.35;65.01;99105.73;126691;1311;108880;-76
2021/12/04 06:29:33;;;;;;;13.60;7.00;;;;;;;0.36;65.20;99107.15;126651;1312;108840;-75
2021/12/04 06:32:39;;;;;;;16.10;7.70;;;;;;;0.38;65.06;99110.75;126697;1306;108303;-73
2021/12/04 06:35:46;;;;;;;13.40;7.80;;;;;;;0.39;64.94;99115.52;126894;1306;108589;-76
2021/12/04 06:38:51;;;;;;;15.20;8.30;;;;;;;0.43;64.97;99112.98;126930;1306;108330;-75
2021/12/04 06:41:57;;;;;;;13.00;7.70;;;;;;;0.47;65.03;99116.74;126903;1310;107089;-75
2021/12/04 06:45:02;;;;;;;14.70;8.00;;;;;;;0.50;64.83;99118.38;127155;1313;108988;-74
2021/12/04 06:48:10;;;;;;;15.40;9.20;;;;;;;0.54;65.03;99115.47;127130;1310;108517;-76
2021/12/04 06:51:23;;;;;;;14.80;8.30;;;;;;;0.59;64.86;99115.06;127093;1306;108693;-75
2021/12/04 06:54:32;;;;;;;15.80;9.60;;;;;;;0.62;64.70;99111.33;127252;1307;109841;-75
2021/12/04 06:57:40;;;;;;;15.60;9.00;;;;;;;0.67;64.71;99110.59;127140;1307;108885;-76
2021/12/04 07:00:47;;;;;;;13.20;7.50;;;;;;;0.72;64.77;99114.11;127132;1310;106544;-75
2021/12/04 07:03:52;;;;;;;13.00;7.90;;;;;;;0.76;64.76;99117.98;126773;1309;107734;-77
2021/12/04 07:06:57;;;;;;;12.90;7.20;;;;;;;0.82;64.53;99113.36;126726;1307;108920;-74
2021/12/04 07:10:04;;;;;;;12.20;7.10;;;;;;;0.85;64.59;99113.48;126769;1306;108939;-76
2021/12/04 07:13:10;;;;;;;14.20;7.50;;;;;;;0.90;64.45;99113.55;126948;1306;108666;-74
2021/12/04 07:16:18;;;;;;;28.30;13.50;;;;;;;0.96;64.56;99118.38;127064;1313;108385;-75
2021/12/04 07:19:24;;;;;;;16.50;8.90;;;;;;;1.01;64.56;99106.44;126954;1307;108778;-75
2021/12/04 07:22:30;;;;;;;12.90;8.00;;;;;;;1.05;64.49;99103.50;126693;1306;107861;-72
2021/12/04 07:25:35;;;;;;;12.00;7.60;;;;;;;1.09;64.40;99099.10;126705;1306;108913;-72
2021/12/04 07:28:41;;;;;;;14.80;7.70;;;;;;;1.14;64.39;99097.64;126756;1306;109600;-71
2021/12/04 07:31:47;;;;;;;15.80;8.80;;;;;;;1.20;64.24;99094.59;126976;1306;108712;-74
2021/12/04 07:34:53;;;;;;;18.60;9.00;;;;;;;1.23;64.19;99092.75;126987;1312;108754;-72
2021/12/04 07:38:00;;;;;;;27.60;12.00;;;;;;;1.27;64.27;99093.13;127032;1312;108439;-74
2021/12/04 07:41:07;;;;;;;42.40;18.50;;;;;;;1.30;64.11;99092.35;127029;1309;108589;-74
2021/12/04 07:44:13;;;;;;;17.20;8.90;;;;;;;1.33;64.03;99090.04;127100;1306;107441;-77
2021/12/04 07:47:19;;;;;;;21.00;11.30;;;;;;;1.38;64.00;99086.70;126686;1313;107564;-74
2021/12/04 07:50:25;;;;;;;15.40;9.30;;;;;;;1.42;64.12;99078.84;126683;1306;108898;-75
2021/12/04 07:53:31;;;;;;;14.50;8.90;;;;;;;1.47;64.03;99083.30;126719;1313;108772;-75
2021/12/04 07:56:36;;;;;;;18.80;9.90;;;;;;;1.53;63.96;99081.09;126983;1307;108740;-73
2021/12/04 07:59:42;;;;;;;18.40;9.60;;;;;;;1.55;64.00;99079.31;127003;1312;108691;-81
2021/12/04 08:02:49;;;;;;;14.90;8.50;;;;;;;1.56;64.02;99080.67;126990;1312;108436;-78
2021/12/04 08:05:55;;;;;;;15.60;8.80;;;;;;;1.59;63.90;99081.31;126675;1307;106971;-75
2021/12/04 08:09:00;;;;;;;14.30;8.20;;;;;;;1.63;63.97;99083.64;126726;1307;108709;-78
2021/12/04 08:12:07;;;;;;;19.00;8.80;;;;;;;1.67;63.96;99086.11;126817;1306;108886;-75
2021/12/04 08:15:13;;;;;;;16.70;8.70;;;;;;;1.70;63.88;99081.08;126753;1309;108858;-79
2021/12/04 08:18:19;;;;;;;17.50;9.10;;;;;;;1.75;63.82;99084.05;127212;1310;108672;-82
2021/12/04 08:21:24;;;;;;;15.90;9.20;;;;;;;1.80;63.82;99084.85;126930;1311;109035;-76
2021/12/04 08:24:30;;;;;;;14.70;8.70;;;;;;;1.86;63.98;99082.41;126791;1312;106678;-77
2021/12/04 08:27:35;;;;;;;19.50;10.30;;;;;;;1.91;63.52;99085.86;126663;1311;108778;-75
2021/12/04 08:30:41;;;;;;;14.20;8.80;;;;;;;1.94;63.70;99089.46;126990;1307;108957;-80
2021/12/04 08:33:46;;;;;;;14.30;8.70;;;;;;;1.98;63.60;99088.98;126939;1309;108919;-76
2021/12/04 08:36:52;;;;;;;17.50;8.80;;;;;;;2.02;63.40;99088.71;126883;1308;109869;-75
2021/12/04 08:39:58;;;;;;;19.60;10.70;;;;;;;2.06;63.46;99086.96;127363;1312;109634;-75
2021/12/04 08:43:04;;;;;;;15.90;8.80;;;;;;;2.09;63.38;99085.76;126973;1312;108962;-76
2021/12/04 08:46:10;;;;;;;16.50;9.60;;;;;;;2.12;63.42;99087.82;127089;1313;107305;-75
2021/12/04 08:49:16;;;;;;;17.50;10.10;;;;;;;2.14;63.02;99084.80;127085;1306;108628;-76
2021/12/04 08:52:21;;;;;;;16.80;9.20;;;;;;;2.17;63.23;99084.30;127107;1306;108949;-76
2021/12/04 08:55:29;;;;;;;13.70;8.10;;;;;;;2.19;63.42;99083.19;126805;1312;108714;-76
2021/12/04 08:58:36;;;;;;;15.50;9.00;;;;;;;2.24;63.31;99080.50;126733;1309;109176;-76
2021/12/04 09:01:44;;;;;;;15.10;8.60;;;;;;;2.29;63.24;99081.84;126670;1313;108124;-76
2021/12/04 09:04:50;;;;;;;15.80;9.50;;;;;;;2.33;63.18;99076.34;126797;1308;108723;-75
2021/12/04 09:07:55;;;;;;;14.90;9.00;;;;;;;2.37;63.09;99074.68;126942;1313;106928;-75
2021/12/04 09:11:05;;;;;;;33.80;16.70;;;;;;;2.42;62.99;99072.21;127021;1312;108809;-76
2021/12/04 09:14:11;;;;;;;23.70;13.40;;;;;;;2.46;62.98;99074.09;126847;1307;108649;-75
2021/12/04 09:17:19;;;;;;;15.80;9.50;;;;;;;2.49;62.86;99074.86;126593;1307;109726;-76
2021/12/04 09:20:28;;;;;;;15.80;9.20;;;;;;;2.50;62.85;99072.73;126684;1310;108724;-75
2021/12/04 09:23:36;;;;;;;18.10;9.30;;;;;;;2.54;63.00;99077.45;126744;1312;108689;-76
2021/12/04 09:26:53;;;;;;;17.80;9.40;;;;;;;2.56;62.72;99072.52;126849;1313;108677;-76
2021/12/04 09:30:08;;;;;;;23.40;14.80;;;;;;;2.61;62.78;99066.88;126754;1307;108896;-76
2021/12/04 09:33:42;;;;;;;20.50;10.40;;;;;;;2.64;62.78;99064.14;126717;1312;108778;-76
2021/12/04 09:59:12;;;;;;;15.80;9.20;;;;;;;2.69;62.79;99065.77;127019;1314;108695;-76
2021/12/04 10:11:56;;;;;;;17.30;9.70;;;;;;;3.08;62.30;99035.56;126961;1312;107750;-77
2021/12/04 10:18:55;;;;;;;18.00;8.80;;;;;;;3.15;62.18;99026.98;127080;1312;108742;-76
2021/12/04 10:32:44;;;;;;;19.40;10.90;;;;;;;3.29;61.98;99016.98;126695;1310;108840;-74
2021/12/04 10:35:50;;;;;;;32.00;14.70;;;;;;;3.32;61.94;99024.48;126720;1307;108972;-75
2021/12/04 10:38:55;;;;;;;17.30;9.70;;;;;;;3.33;61.90;99022.05;126722;1312;108702;-75
2021/12/04 10:42:04;;;;;;;16.60;8.90;;;;;;;3.36;61.89;99016.58;126852;1313;109059;-77
2021/12/04 10:45:10;;;;;;;16.80;9.10;;;;;;;3.38;61.78;99015.69;126821;1310;108654;-75
2021/12/04 10:48:20;;;;;;;17.30;8.50;;;;;;;3.38;61.72;99008.95;126995;1313;109045;-74
2021/12/04 10:51:30;;;;;;;18.00;8.50;;;;;;;3.41;61.63;99007.15;127045;1314;108754;-77
2021/12/04 10:54:39;;;;;;;16.00;9.20;;;;;;;3.44;61.66;99002.67;127067;1308;108871;-77
2021/12/04 11:01:25;;;;;;;14.70;8.10;;;;;;;3.50;61.41;99000.15;126923;1312;108786;-75
2021/12/04 11:04:39;;;;;;;22.40;13.90;;;;;;;3.55;61.48;99001.98;127298;1307;108714;-76
2021/12/04 11:18:34;;;;;;;18.40;10.00;;;;;;;3.59;61.42;99001.85;127125;1312;108879;-75
2021/12/04 11:29:02;;;;;;;27.70;16.70;;;;;;;3.70;61.27;98996.28;126980;1308;109085;-76
2021/12/04 11:39:08;;;;;;;20.50;10.80;;;;;;;3.70;61.35;98987.11;126824;1307;107729;-77
2021/12/04 11:42:23;;;;;;;26.80;14.40;;;;;;;3.69;61.11;98986.61;126751;1307;108858;-74
2021/12/04 11:45:41;;;;;;;27.60;15.40;;;;;;;3.70;61.36;98990.42;126954;1307;108773;-76
2021/12/04 11:48:47;;;;;;;23.30;13.70;;;;;;;3.72;61.27;98990.09;127112;1312;108883;-77
2021/12/04 11:51:57;;;;;;;19.10;10.80;;;;;;;3.73;61.09;98987.90;127109;1307;108843;-77
2021/12/04 11:55:08;;;;;;;17.70;9.40;;;;;;;3.73;61.15;98990.02;127132;1307;107687;-76
2021/12/04 11:58:23;;;;;;;16.60;9.40;;;;;;;3.73;61.16;98986.14;126923;1306;108897;-77
2021/12/04 12:01:32;;;;;;;22.80;13.30;;;;;;;3.71;61.11;98987.24;126763;1306;108927;-75
2021/12/04 12:04:41;;;;;;;37.30;22.70;;;;;;;3.68;61.08;98990.45;126962;1312;108535;-75
2021/12/04 12:07:55;;;;;;;20.40;11.80;;;;;;;3.65;61.06;98989.85;126967;1307;108878;-75
2021/12/04 12:11:07;;;;;;;22.30;11.50;;;;;;;3.63;61.13;98987.05;126869;1313;108759;-77
2021/12/04 12:14:14;;;;;;;23.00;12.30;;;;;;;3.61;61.11;98983.88;126815;1311;107516;-74
2021/12/04 12:17:32;;;;;;;23.20;13.00;;;;;;;3.60;61.07;98986.42;126764;1310;108828;-75
2021/12/04 12:20:43;;;;;;;26.80;14.60;;;;;;;3.59;61.03;98981.58;127048;1311;108865;-76
2021/12/04 12:24:13;;;;;;;31.40;15.10;;;;;;;3.57;60.98;98983.23;126898;1312;108914;-76
2021/12/04 12:27:27;;;;;;;28.80;14.50;;;;;;;3.55;61.03;98989.15;126868;1306;108613;-75
2021/12/04 12:34:06;;;;;;;25.50;13.10;;;;;;;3.52;61.04;98988.55;127164;1311;108789;-75
2021/12/04 12:37:23;;;;;;;25.10;12.50;;;;;;;3.52;61.04;98988.91;127105;1312;108898;-75
2021/12/04 12:40:30;;;;;;;22.50;11.50;;;;;;;3.50;61.07;98988.21;126776;1307;108941;-76
2021/12/04 12:43:41;;;;;;;25.30;12.60;;;;;;;3.51;61.03;98987.61;126781;1306;107824;-76
2021/12/04 12:46:48;;;;;;;22.80;12.50;;;;;;;3.49;60.99;98987.05;126765;1307;109072;-76
2021/12/04 12:49:54;;;;;;;28.70;16.60;;;;;;;3.48;60.98;98988.36;127264;1306;108926;-76
2021/12/04 12:53:06;;;;;;;28.20;15.50;;;;;;;3.45;61.04;98988.11;126960;1311;109062;-77
2021/12/04 12:56:14;;;;;;;25.60;13.90;;;;;;;3.44;61.03;98994.04;127029;1311;108992;-77
2021/12/04 12:59:32;;;;;;;25.10;12.80;;;;;;;3.42;61.05;98997.56;126922;1306;107963;-76
2021/12/04 13:12:56;;;;;;;51.60;31.00;;;;;;;3.22;61.53;98997.05;126928;1309;108811;-76
2021/12/04 13:16:06;;;;;;;27.50;15.20;;;;;;;3.20;61.77;99001.63;126695;1309;108958;-76
2021/12/04 13:19:14;;;;;;;27.60;15.10;;;;;;;3.12;62.12;99006.56;126805;1308;108593;-76
2021/12/04 13:22:22;;;;;;;33.60;17.40;;;;;;;3.06;62.55;99008.83;126857;1307;108731;-77
2021/12/04 13:25:28;;;;;;;46.00;26.40;;;;;;;3.02;62.79;99008.34;127027;1311;108808;-76
2021/12/04 13:28:37;;;;;;;21.80;12.80;;;;;;;2.99;63.29;99006.50;126787;1312;108948;-76
2021/12/04 13:31:43;;;;;;;20.70;11.30;;;;;;;2.91;63.61;99009.64;126824;1312;108959;-76
2021/12/04 13:34:49;;;;;;;20.80;12.00;;;;;;;2.87;63.72;99010.52;126867;1306;108850;-77
2021/12/04 13:38:01;;;;;;;16.20;10.20;;;;;;;2.85;63.97;99005.75;126673;1307;108950;-76
2021/12/04 13:41:07;;;;;;;16.00;9.70;;;;;;;2.90;64.06;99000.45;126689;1306;108705;-76
2021/12/04 13:44:17;;;;;;;19.70;11.90;;;;;;;2.96;64.12;98997.23;126963;1307;108920;-76
2021/12/04 13:47:24;;;;;;;17.90;11.20;;;;;;;3.04;64.39;98995.50;126918;1311;108570;-76
2021/12/04 13:50:45;;;;;;;18.30;10.80;;;;;;;3.07;64.32;98992.57;126925;1309;108623;-76
2021/12/04 13:53:50;;;;;;;19.70;11.30;;;;;;;3.10;64.52;98991.46;126766;1307;108810;-76
2021/12/04 13:56:56;;;;;;;19.40;10.90;;;;;;;3.09;64.65;98988.41;126630;1309;109181;-77
2021/12/04 14:00:04;;;;;;;18.70;10.80;;;;;;;3.07;64.70;98990.98;126797;1312;108890;-77
2021/12/04 14:03:10;;;;;;;19.50;11.10;;;;;;;3.03;64.74;98989.27;126708;1309;108903;-76
2021/12/04 14:06:18;;;;;;;20.00;11.70;;;;;;;2.98;64.89;98986.00;126695;1312;109619;-77
2021/12/04 14:09:25;;;;;;;30.60;16.50;;;;;;;2.92;64.90;98981.94;126782;1309;109134;-77
2021/12/04 14:12:33;;;;;;;58.40;29.00;;;;;;;2.87;64.98;98977.10;127042;1307;108986;-77
2021/12/04 14:15:43;;;;;;;44.50;22.70;;;;;;;2.83;65.16;98977.16;126982;1312;108828;-77
2021/12/04 14:18:49;;;;;;;51.60;27.20;;;;;;;2.79;65.34;98976.08;126929;1309;108867;-76
2021/12/04 14:21:59;;;;;;;56.20;27.50;;;;;;;2.74;65.47;98975.13;126732;1307;106767;-76
2021/12/04 14:25:07;;;;;;;48.90;23.90;;;;;;;2.70;65.52;98978.92;126606;1309;108971;-76
2021/12/04 14:28:14;;;;;;;51.70;22.00;;;;;;;2.71;65.63;98977.32;126764;1309;108711;-75
2021/12/04 14:31:25;;;;;;;41.30;21.40;;;;;;;2.76;65.78;98980.35;126912;1310;108834;-76
2021/12/04 14:34:31;;;;;;;48.10;23.70;;;;;;;2.82;65.82;98979.55;126810;1312;108699;-76
2021/12/04 14:37:38;;;;;;;46.20;21.90;;;;;;;2.83;65.81;98981.73;126901;1308;108713;-77
2021/12/04 14:40:46;;;;;;;45.20;20.50;;;;;;;2.83;65.89;98985.80;126908;1309;108580;-76
2021/12/04 14:43:52;;;;;;;83.20;29.50;;;;;;;2.78;66.04;98989.66;126849;1309;107385;-76
2021/12/04 14:46:58;;;;;;;47.80;21.60;;;;;;;2.78;66.03;98994.33;126736;1309;108936;-76
2021/12/04 14:50:06;;;;;;;82.70;31.40;;;;;;;2.77;66.13;98994.69;126585;1309;108887;-76
2021/12/04 14:53:14;;;;;;;166.00;51.20;;;;;;;2.74;66.19;98995.83;126608;1309;107325;-76
2021/12/04 14:56:22;;;;;;;92.10;35.10;;;;;;;2.70;66.33;98990.56;127021;1309;107862;-74
2021/12/04 14:59:32;;;;;;;57.20;23.70;;;;;;;2.63;66.39;98991.86;126762;1309;108825;-73
2021/12/04 15:02:38;;;;;;;44.20;21.10;;;;;;;2.57;66.57;98996.08;126891;1309;108961;-75
2021/12/04 15:05:46;;;;;;;85.50;36.80;;;;;;;2.53;66.69;98993.45;126931;1307;108885;-75
2021/12/04 15:08:58;;;;;;;39.00;18.90;;;;;;;2.52;66.62;98985.48;127263;1306;108880;-74
2021/12/04 15:12:04;;;;;;;62.90;24.10;;;;;;;2.53;66.86;98985.67;126663;1311;108839;-75
2021/12/04 15:15:12;;;;;;;35.80;18.00;;;;;;;2.56;66.88;98995.96;126791;1307;108858;-74
2021/12/04 15:18:21;;;;;;;31.40;15.90;;;;;;;2.61;66.86;99003.10;126867;1309;108506;-76
2021/12/04 15:21:35;;;;;;;30.10;16.30;;;;;;;2.71;67.00;99009.79;127135;1309;107520;-74
2021/12/04 15:24:44;;;;;;;36.00;19.00;;;;;;;2.79;66.95;99007.39;126961;1307;107740;-76
2021/12/04 15:27:49;;;;;;;55.80;29.80;;;;;;;2.80;67.00;99003.27;126898;1306;108967;-73
2021/12/04 15:30:58;;;;;;;37.10;20.40;;;;;;;2.79;67.15;99005.30;126830;1308;108872;-73
2021/12/04 15:34:04;;;;;;;39.70;20.60;;;;;;;2.77;67.06;99013.32;126612;1309;109077;-76
2021/12/04 15:37:09;;;;;;;39.70;21.80;;;;;;;2.78;67.21;99018.04;127007;1311;108932;-74
2021/12/04 15:40:30;;;;;;;37.60;21.00;;;;;;;2.75;67.22;99023.85;126799;1307;108788;-73
2021/12/04 15:43:41;;;;;;;35.80;20.80;;;;;;;2.69;67.21;99028.35;126663;1309;108753;-77
2021/12/04 15:46:57;;;;;;;39.30;21.70;;;;;;;2.67;67.35;99029.14;126796;1311;108503;-76
2021/12/04 15:50:29;;;;;;;42.40;23.40;;;;;;;2.63;67.63;99018.93;127025;1307;108715;-75
2021/12/04 15:53:35;;;;;;;44.50;24.80;;;;;;;2.57;67.55;99012.80;127109;1307;108641;-73
2021/12/04 15:56:45;;;;;;;61.90;30.10;;;;;;;2.52;67.72;99011.56;127112;1310;108774;-75
2021/12/04 15:59:52;;;;;;;37.70;21.50;;;;;;;2.53;67.86;99006.63;127017;1307;108803;-74
2021/12/04 16:03:00;;;;;;;40.40;22.40;;;;;;;2.55;67.96;99006.93;126971;1307;109689;-73
2021/12/04 16:06:10;;;;;;;41.00;21.30;;;;;;;2.60;67.91;99005.67;126921;1307;109009;-75
2021/12/04 16:09:24;;;;;;;37.60;20.50;;;;;;;2.61;67.78;99010.30;126910;1307;108840;-75
2021/12/04 16:12:29;;;;;;;35.90;20.00;;;;;;;2.58;67.81;99017.77;126822;1307;108867;-75
2021/12/04 16:15:36;;;;;;;32.00;17.70;;;;;;;2.58;67.89;99016.77;126826;1308;108811;-76
2021/12/04 16:18:42;;;;;;;33.60;18.20;;;;;;;2.56;67.98;99018.98;126837;1307;108971;-75
2021/12/04 16:21:48;;;;;;;37.30;19.80;;;;;;;2.52;67.99;99017.95;127166;1311;108418;-75
2021/12/04 16:24:55;;;;;;;34.10;19.40;;;;;;;2.50;68.12;99016.52;127069;1309;109028;-75
2021/12/04 16:28:07;;;;;;;36.10;19.30;;;;;;;2.49;68.03;99019.45;127022;1310;109357;-75
2021/12/04 16:31:28;;;;;;;41.40;22.20;;;;;;;2.42;68.22;99022.81;127024;1312;108692;-73
2021/12/04 16:37:57;;;;;;;30.40;16.40;;;;;;;2.43;68.43;99041.00;127080;1309;108840;-73
2021/12/04 16:41:07;;;;;;;30.90;17.70;;;;;;;2.48;68.35;99037.21;126917;1309;108768;-75